»·PEaware :: N5112G KBUR-KVCV

N5112G :: KBUR-KVCV

FLIGHT INFORMATION

Flight Status: Arrived
Operator: Privately registered:
United States
More flights under this callsign
Pilot: James H. (28678)
Aircraft: CESSNA 182 SKYLANE
(C182)
More flights by this aircraft type
Origin: KBUR Bob Hope-Burbank
United States
Destination: KVCV Socal Logistics
United States
More flights between these airports :: More routes between these airports
Route: VNY3 PMD
File this flight plan on PilotEdge
Remarks:
Altitude:
(Current/Filed)
7,000ft
Speed:
(Current/Filed)
105kts
Departed: 15-Nov-20 01:16 PM
Arrived: 15-Nov-20 02:05 PM
Distance/Time
Traveled:
54nm/0:49
Distance/Time
To Go:
Arrived

Flight Plot

Page will automatically refresh every two minutes.

Flight plan parsing failed; only flown route is shown


Map Options




Map Legend


Flown Route
Filed Route
Departure Airport
Arrival Airport
Navaid (VOR, NDB)
Fix

Horizontal Profiles

Position Reports

Time Latitude Longitude Heading Altitude Ground
Speed
15-Nov-20 12:59 34.200258 -118.362797 220 726ft 0kts
15-Nov-20 13:00 34.200258 -118.362797 220 726ft 0kts
15-Nov-20 13:01 34.200258 -118.362797 220 726ft 0kts
15-Nov-20 13:02 34.200258 -118.362797 220 726ft 0kts
15-Nov-20 13:03 34.200258 -118.362797 220 726ft 0kts
15-Nov-20 13:04 34.200258 -118.362797 220 726ft 0kts
15-Nov-20 13:05 34.200258 -118.362797 220 726ft 0kts
15-Nov-20 13:06 34.200258 -118.362797 220 726ft 0kts
15-Nov-20 13:07 34.200258 -118.362797 220 726ft 0kts
15-Nov-20 13:08 34.200258 -118.362797 220 726ft 0kts
15-Nov-20 13:09 34.199813 -118.364436 211 725ft 11kts
15-Nov-20 13:10 34.199120 -118.367203 269 727ft 13kts
15-Nov-20 13:11 34.198845 -118.368914 188 727ft 0kts
15-Nov-20 13:12 34.198845 -118.368914 188 727ft 0kts
15-Nov-20 13:13 34.198845 -118.368914 188 727ft 0kts
15-Nov-20 13:14 34.198175 -118.368725 142 726ft 17kts
15-Nov-20 13:15 34.194947 -118.348475 150 1258ft 79kts
15-Nov-20 13:16 34.178074 -118.361244 226 2083ft 80kts
15-Nov-20 13:17 34.162777 -118.379349 223 2875ft 80kts
15-Nov-20 13:18 34.146916 -118.398089 224 3622ft 82kts
15-Nov-20 13:19 34.150580 -118.415589 352 4329ft 80kts
15-Nov-20 13:20 34.173123 -118.419869 350 4981ft 84kts
15-Nov-20 13:21 34.196393 -118.423483 353 5620ft 85kts
15-Nov-20 13:22 34.219893 -118.424595 16 6239ft 84kts
15-Nov-20 13:23 34.242787 -118.416241 17 6803ft 87kts
15-Nov-20 13:24 34.272190 -118.405573 16 6816ft 122kts
15-Nov-20 13:25 34.305438 -118.392460 18 6810ft 127kts
15-Nov-20 13:26 34.339227 -118.379080 17 6809ft 128kts
15-Nov-20 13:27 34.373235 -118.366289 16 6809ft 128kts
15-Nov-20 13:28 34.407292 -118.353777 16 6809ft 128kts
15-Nov-20 13:29 34.441458 -118.341106 17 6809ft 128kts
15-Nov-20 13:30 34.472072 -118.321694 52 6809ft 128kts
15-Nov-20 13:31 34.493107 -118.286849 53 6809ft 128kts
15-Nov-20 13:32 34.514149 -118.251873 53 6809ft 128kts
15-Nov-20 13:33 34.535191 -118.217269 52 6809ft 128kts
15-Nov-20 13:34 34.556743 -118.182992 51 6809ft 128kts
15-Nov-20 13:35 34.578403 -118.148718 52 6809ft 128kts
15-Nov-20 13:36 34.599910 -118.114228 52 6809ft 128kts
15-Nov-20 13:37 34.620185 -118.078666 62 6809ft 128kts
15-Nov-20 13:38 34.636534 -118.040304 62 6809ft 128kts
15-Nov-20 13:39 34.653072 -118.002038 61 6809ft 128kts
15-Nov-20 13:40 34.669933 -117.963749 61 6809ft 128kts
15-Nov-20 13:41 34.686685 -117.925709 61 6809ft 128kts
15-Nov-20 13:42 34.703540 -117.887437 61 6809ft 128kts
15-Nov-20 13:43 34.720520 -117.848888 61 6810ft 131kts
15-Nov-20 13:44 34.737741 -117.809790 61 6809ft 131kts
15-Nov-20 13:45 34.755065 -117.770461 61 6809ft 132kts
15-Nov-20 13:46 34.772385 -117.731139 61 6809ft 131kts
15-Nov-20 13:47 34.789716 -117.691796 61 6809ft 131kts
15-Nov-20 13:48 34.807023 -117.652507 61 6809ft 131kts
15-Nov-20 13:49 34.824287 -117.613319 61 6809ft 131kts
15-Nov-20 13:50 34.841632 -117.573876 63 6809ft 131kts
15-Nov-20 13:51 34.842196 -117.529715 85 6809ft 131kts
15-Nov-20 13:52 34.846621 -117.485491 82 6809ft 131kts
15-Nov-20 13:53 34.850871 -117.444666 82 6808ft 115kts
15-Nov-20 13:54 34.835560 -117.414632 154 6501ft 123kts
15-Nov-20 13:55 34.806791 -117.395451 152 5966ft 112kts
15-Nov-20 13:56 34.777954 -117.390326 175 5588ft 105kts
15-Nov-20 13:57 34.749809 -117.388872 178 5248ft 102kts
15-Nov-20 13:58 34.722884 -117.387689 176 4880ft 101kts
15-Nov-20 13:59 34.699069 -117.388058 181 4376ft 82kts
15-Nov-20 14:00 34.678796 -117.387607 175 3972ft 81kts
15-Nov-20 14:01 34.659210 -117.387560 177 3589ft 80kts
15-Nov-20 14:02 34.642850 -117.387342 180 3279ft 80kts
15-Nov-20 14:03 34.622481 -117.386932 178 2891ft 79kts
15-Nov-20 14:04 34.610966 -117.386375 148 2827ft 19kts

Navigation Log

Ident Type
Flight plan parsing failed, navigation log unavailable